Time;durP1;ratioP1;P1;durP2;ratioP2;P2;SDS_P1;SDS_P2;PMS_P1;PMS_P2;Temp;Humidity;BMP_temperature;BMP_pressure;BME280_temperature;BME280_humidity;BME280_pressure;Samples;Min_cycle;Max_cycle;Signal;HPM_P1;HPM_P2
2022/07/22 00:00:59;;;;;;;4.80;1.20;;;23.10;37.90;;;;;;4974816;28;20419;-92
2022/07/22 00:03:24;;;;;;;6.50;1.73;;;23.00;38.20;;;;;;4974493;28;20478;-92
2022/07/22 00:05:50;;;;;;;8.52;1.27;;;23.00;38.80;;;;;;4974544;28;20033;-92
2022/07/22 00:08:16;;;;;;;2.60;1.20;;;22.90;38.20;;;;;;4973882;28;20129;-91
2022/07/22 00:10:42;;;;;;;6.85;1.45;;;22.90;38.20;;;;;;4974767;28;20483;-90
2022/07/22 00:13:07;;;;;;;3.95;1.63;;;22.90;38.40;;;;;;4974668;28;20081;-91
2022/07/22 00:15:33;;;;;;;5.82;1.08;;;22.90;38.60;;;;;;4974685;28;20496;-91
2022/07/22 00:17:59;;;;;;;5.10;2.10;;;22.90;38.80;;;;;;4974692;28;20031;-90
2022/07/22 00:20:25;;;;;;;6.57;1.48;;;22.90;38.90;;;;;;4975726;28;20030;-91
2022/07/22 00:22:50;;;;;;;6.00;1.00;;;22.80;39.00;;;;;;4973896;28;20144;-91
2022/07/22 00:25:16;;;;;;;5.78;1.10;;;22.80;39.10;;;;;;4974320;28;20534;-91
2022/07/22 00:27:42;;;;;;;6.53;0.95;;;22.80;39.00;;;;;;4974015;28;20149;-91
2022/07/22 00:30:09;;;;;;;4.65;1.33;;;22.80;39.20;;;;;;4974118;28;20023;-90
2022/07/22 00:32:34;;;;;;;10.93;2.63;;;22.80;39.40;;;;;;4975499;28;20153;-91
2022/07/22 00:35:00;;;;;;;4.82;1.30;;;22.80;39.50;;;;;;4974925;28;20066;-90
2022/07/22 00:37:26;;;;;;;4.53;1.17;;;22.80;39.70;;;;;;4974097;28;20030;-91
2022/07/22 00:39:51;;;;;;;8.98;1.40;;;22.70;39.60;;;;;;4989520;28;20042;-90
2022/07/22 00:42:17;;;;;;;6.85;1.65;;;22.70;39.70;;;;;;4993750;28;20022;-90
2022/07/22 00:44:43;;;;;;;3.38;1.02;;;22.70;40.10;;;;;;4993311;28;20041;-91
2022/07/22 00:47:10;;;;;;;8.90;1.38;;;22.70;39.40;;;;;;4976543;28;20109;-91
2022/07/22 00:49:35;;;;;;;7.22;1.30;;;22.70;39.50;;;;;;4977611;28;20114;-90
2022/07/22 00:52:01;;;;;;;11.10;1.63;;;22.70;39.50;;;;;;4975626;28;20102;-91
2022/07/22 00:54:27;;;;;;;11.63;1.50;;;22.70;39.60;;;;;;4972400;28;20038;-91
2022/07/22 00:56:54;;;;;;;7.57;1.80;;;22.60;39.70;;;;;;4973518;28;20023;-91
2022/07/22 00:59:20;;;;;;;5.68;1.20;;;22.60;40.20;;;;;;4973114;28;20081;-91
2022/07/22 01:01:46;;;;;;;5.40;1.25;;;22.50;40.30;;;;;;4973835;28;20046;-91
2022/07/22 01:04:12;;;;;;;9.10;1.33;;;22.50;40.40;;;;;;4974292;28;20035;-90
2022/07/22 01:06:37;;;;;;;8.20;1.25;;;22.40;40.40;;;;;;4973534;28;20027;-91
2022/07/22 01:09:03;;;;;;;7.32;1.10;;;22.40;40.40;;;;;;4972691;28;20038;-91
2022/07/22 01:11:29;;;;;;;6.25;1.20;;;22.40;40.90;;;;;;4970769;28;20027;-91
2022/07/22 01:13:56;;;;;;;11.93;1.40;;;22.30;40.80;;;;;;4972305;28;20399;-91
2022/07/22 01:16:22;;;;;;;5.60;2.10;;;22.30;41.10;;;;;;4973803;28;20041;-90
2022/07/22 01:18:48;;;;;;;7.07;1.27;;;22.20;40.90;;;;;;4972903;28;20031;-91
2022/07/22 01:21:15;;;;;;;4.35;1.40;;;22.20;41.00;;;;;;4974802;28;20038;-91
2022/07/22 01:23:41;;;;;;;5.95;1.05;;;22.20;41.20;;;;;;4973444;28;20117;-90
2022/07/22 01:26:08;;;;;;;4.53;1.20;;;22.20;41.40;;;;;;4976741;28;20026;-90
2022/07/22 01:28:33;;;;;;;5.13;1.70;;;22.20;41.60;;;;;;4992411;28;20048;-89
2022/07/22 01:30:59;;;;;;;4.32;1.20;;;22.20;41.60;;;;;;4992629;28;20558;-91
2022/07/22 01:33:25;;;;;;;8.07;1.20;;;22.10;41.70;;;;;;4992436;28;20030;-91
2022/07/22 01:35:51;;;;;;;8.18;1.55;;;22.10;41.90;;;;;;4977529;28;20037;-91
2022/07/22 01:38:17;;;;;;;10.45;1.83;;;22.00;42.10;;;;;;4974154;28;20026;-91
2022/07/22 01:40:44;;;;;;;6.95;1.55;;;22.00;42.30;;;;;;4973419;28;20794;-91
2022/07/22 01:43:11;;;;;;;6.20;1.60;;;22.00;42.20;;;;;;4972986;28;20038;-91
2022/07/22 01:45:37;;;;;;;9.00;1.38;;;22.00;42.00;;;;;;4979790;28;20027;-91
2022/07/22 01:48:03;;;;;;;4.53;1.17;;;22.00;42.00;;;;;;4993271;28;20034;-91
2022/07/22 01:50:29;;;;;;;4.72;2.03;;;22.00;41.80;;;;;;4988362;28;20094;-90
2022/07/22 01:52:55;;;;;;;8.10;1.45;;;21.90;41.90;;;;;;4974026;28;20541;-90
2022/07/22 01:55:21;;;;;;;4.80;0.93;;;21.90;41.90;;;;;;4972867;28;20121;-91
2022/07/22 01:57:46;;;;;;;6.38;1.25;;;21.90;42.10;;;;;;4972926;28;20499;-91
2022/07/22 02:00:13;;;;;;;5.57;1.05;;;21.90;42.10;;;;;;4973926;28;20062;-91
2022/07/22 02:02:38;;;;;;;5.40;1.42;;;22.00;42.30;;;;;;4972593;28;20038;-91
2022/07/22 02:05:05;;;;;;;6.00;1.40;;;21.90;42.30;;;;;;4972584;28;20031;-91
2022/07/22 02:07:32;;;;;;;4.85;1.30;;;21.90;42.50;;;;;;4972412;28;20085;-91
2022/07/22 02:09:57;;;;;;;9.35;1.88;;;21.90;42.30;;;;;;4972538;28;20066;-91
2022/07/22 02:12:23;;;;;;;6.40;1.60;;;21.90;42.30;;;;;;4972547;28;20058;-90
2022/07/22 02:14:49;;;;;;;9.43;1.25;;;21.90;42.40;;;;;;4973281;28;20059;-90
2022/07/22 02:17:15;;;;;;;4.90;1.00;;;21.90;42.60;;;;;;4972261;28;20051;-91
2022/07/22 02:19:41;;;;;;;3.63;1.45;;;21.90;42.80;;;;;;4975362;28;20057;-91
2022/07/22 02:22:07;;;;;;;5.50;1.63;;;21.90;42.70;;;;;;4973055;28;20049;-91
2022/07/22 02:24:33;;;;;;;5.07;1.50;;;21.80;42.80;;;;;;4974749;28;20026;-91
2022/07/22 02:26:59;;;;;;;9.68;1.35;;;21.80;42.80;;;;;;4974852;28;20023;-91
2022/07/22 02:29:26;;;;;;;6.78;1.75;;;21.80;44.00;;;;;;4972847;28;20068;-92
2022/07/22 02:31:51;;;;;;;11.75;1.70;;;21.70;43.30;;;;;;4974144;28;20019;-90
2022/07/22 02:34:17;;;;;;;9.63;1.60;;;21.60;42.70;;;;;;4973921;28;20086;-91
2022/07/22 02:36:43;;;;;;;6.18;1.23;;;21.70;42.60;;;;;;4974597;28;20027;-91
2022/07/22 02:39:08;;;;;;;8.05;1.73;;;21.70;42.50;;;;;;4974531;28;20027;-91
2022/07/22 02:41:34;;;;;;;4.68;1.35;;;21.70;42.60;;;;;;4973673;28;20031;-92
2022/07/22 02:44:00;;;;;;;6.20;1.60;;;21.70;42.70;;;;;;4990420;28;20026;-91
2022/07/22 02:46:28;;;;;;;6.53;1.08;;;21.70;42.90;;;;;;4994029;28;20030;-91
2022/07/22 02:48:54;;;;;;;7.93;1.42;;;21.60;42.90;;;;;;4993308;28;20237;-91
2022/07/22 02:51:20;;;;;;;6.68;1.83;;;21.60;43.00;;;;;;4983026;28;20200;-91
2022/07/22 02:53:46;;;;;;;6.68;1.25;;;21.60;43.10;;;;;;4979039;28;20054;-92
2022/07/22 02:56:11;;;;;;;5.63;1.20;;;21.50;43.10;;;;;;4973230;28;20483;-92
2022/07/22 02:58:37;;;;;;;6.80;1.35;;;21.50;43.20;;;;;;4972078;28;20479;-90
2022/07/22 03:01:03;;;;;;;5.78;1.40;;;21.40;43.20;;;;;;4971211;28;20046;-91
2022/07/22 03:03:28;;;;;;;3.92;1.73;;;21.40;43.30;;;;;;4972011;28;20026;-91
2022/07/22 03:05:54;;;;;;;9.40;1.63;;;21.40;43.60;;;;;;4972460;28;20031;-91
2022/07/22 03:08:20;;;;;;;12.55;1.85;;;21.40;43.80;;;;;;4971607;28;20043;-91
2022/07/22 03:10:45;;;;;;;5.82;1.50;;;21.40;43.70;;;;;;4971932;28;20027;-91
2022/07/22 03:13:11;;;;;;;7.18;1.38;;;21.30;43.60;;;;;;4972147;28;20041;-91
2022/07/22 03:15:36;;;;;;;6.10;1.10;;;21.30;43.60;;;;;;4971592;28;20023;-91
2022/07/22 03:18:03;;;;;;;8.48;1.50;;;21.30;43.50;;;;;;4971747;28;20034;-92
2022/07/22 03:20:28;;;;;;;6.55;1.50;;;21.40;43.40;;;;;;4974138;28;20018;-92
2022/07/22 03:22:54;;;;;;;7.07;1.60;;;21.40;43.50;;;;;;4977127;28;20460;-91
2022/07/22 03:25:20;;;;;;;4.90;1.20;;;21.40;43.60;;;;;;4976029;28;20061;-92
2022/07/22 03:27:45;;;;;;;3.38;1.23;;;21.40;43.50;;;;;;4976013;28;20039;-92
2022/07/22 03:30:11;;;;;;;10.90;1.45;;;21.40;43.70;;;;;;4976028;28;20041;-92
2022/07/22 03:32:37;;;;;;;12.32;2.03;;;21.50;43.90;;;;;;4975342;28;20029;-91
2022/07/22 03:35:03;;;;;;;5.15;2.03;;;21.50;44.00;;;;;;4975680;28;20039;-91
2022/07/22 03:37:29;;;;;;;6.82;1.50;;;21.40;43.80;;;;;;4974947;28;20027;-91
2022/07/22 03:39:54;;;;;;;5.00;1.05;;;21.50;44.00;;;;;;4975726;28;20029;-91
2022/07/22 03:42:20;;;;;;;5.85;1.10;;;21.50;43.70;;;;;;4975488;28;20058;-90
2022/07/22 03:44:46;;;;;;;12.15;1.40;;;21.50;43.90;;;;;;4975800;28;20031;-92
2022/07/22 03:47:17;;;;;;;12.82;2.20;;;21.60;44.20;;;;;;4975689;28;20056;-91
2022/07/22 03:49:42;;;;;;;3.88;1.30;;;21.50;44.40;;;;;;4976174;28;20027;-91
2022/07/22 03:52:08;;;;;;;7.72;1.45;;;21.60;44.20;;;;;;4975549;28;20451;-91
2022/07/22 03:54:33;;;;;;;4.93;1.77;;;21.60;44.50;;;;;;4975370;28;20034;-91
2022/07/22 03:56:59;;;;;;;5.22;2.05;;;21.70;44.40;;;;;;4975304;28;20077;-91
2022/07/22 03:59:25;;;;;;;12.00;1.88;;;21.70;44.40;;;;;;4975145;28;20035;-91
2022/07/22 04:01:50;;;;;;;5.88;1.40;;;21.80;44.40;;;;;;4974839;28;20042;-91
2022/07/22 04:04:16;;;;;;;9.70;1.63;;;21.90;44.50;;;;;;4975172;28;20484;-91
2022/07/22 04:06:42;;;;;;;4.25;1.63;;;22.00;44.70;;;;;;4974976;28;20054;-91
2022/07/22 04:09:07;;;;;;;3.30;1.38;;;22.10;44.30;;;;;;4979041;28;20110;-91
2022/07/22 04:11:33;;;;;;;7.78;1.65;;;22.20;44.50;;;;;;4975297;28;20019;-92
2022/07/22 04:14:00;;;;;;;5.85;1.85;;;22.30;44.30;;;;;;4974941;28;20055;-92
2022/07/22 04:16:25;;;;;;;4.90;1.60;;;22.40;44.10;;;;;;4975184;28;20031;-91
2022/07/22 04:18:51;;;;;;;7.10;1.85;;;22.60;44.10;;;;;;4975206;28;20514;-91
2022/07/22 04:21:17;;;;;;;5.30;1.52;;;22.70;43.90;;;;;;4976200;28;20055;-92
2022/07/22 04:23:43;;;;;;;8.93;1.80;;;22.90;43.80;;;;;;4975445;28;20105;-92
2022/07/22 04:26:08;;;;;;;4.65;1.30;;;23.00;44.10;;;;;;4975953;28;20558;-91
2022/07/22 04:28:34;;;;;;;15.60;1.73;;;23.10;44.40;;;;;;4963562;28;20566;-92
2022/07/22 04:31:04;;;;;;;2.20;1.23;;;23.30;43.80;;;;;;4970810;28;20031;-93
2022/07/22 04:33:30;;;;;;;5.55;1.38;;;23.60;43.70;;;;;;4973600;28;20043;-92
2022/07/22 04:35:56;;;;;;;7.50;1.67;;;23.80;43.50;;;;;;4977397;28;20733;-92
2022/07/22 04:38:22;;;;;;;11.68;2.33;;;24.00;43.20;;;;;;4975848;28;20034;-92
2022/07/22 04:40:49;;;;;;;4.72;1.42;;;24.10;42.90;;;;;;4967100;28;20027;-93
2022/07/22 04:43:15;;;;;;;5.30;2.28;;;24.10;42.60;;;;;;4974079;28;20031;-92
2022/07/22 04:45:40;;;;;;;14.35;1.92;;;24.30;42.60;;;;;;4979173;28;20372;-93
2022/07/22 04:48:06;;;;;;;8.73;1.73;;;24.40;42.80;;;;;;4993798;28;20046;-92
2022/07/22 04:50:31;;;;;;;5.00;1.48;;;24.50;42.90;;;;;;4997331;28;20030;-93
2022/07/22 04:52:57;;;;;;;13.85;1.73;;;24.60;43.10;;;;;;4996410;28;20030;-91
2022/07/22 04:55:23;;;;;;;11.95;1.90;;;24.70;43.00;;;;;;4978835;28;20289;-93
2022/07/22 04:57:48;;;;;;;7.85;2.03;;;24.70;43.00;;;;;;4975612;28;20031;-92
2022/07/22 05:00:15;;;;;;;7.60;1.73;;;24.90;42.90;;;;;;4975551;28;20113;-93
2022/07/22 05:02:41;;;;;;;10.35;1.80;;;25.00;42.80;;;;;;4973640;28;20031;-92
2022/07/22 05:05:07;;;;;;;6.78;1.75;;;25.20;42.90;;;;;;4974216;28;20041;-93
2022/07/22 05:07:33;;;;;;;10.27;1.73;;;25.50;43.00;;;;;;4973071;28;20030;-93
2022/07/22 05:09:58;;;;;;;6.85;2.70;;;25.80;42.30;;;;;;4973188;28;20038;-93
2022/07/22 05:12:24;;;;;;;5.32;1.80;;;26.10;41.70;;;;;;4973775;28;20043;-93
2022/07/22 05:14:50;;;;;;;13.25;2.10;;;26.30;41.30;;;;;;4973636;28;20030;-93
2022/07/22 05:17:15;;;;;;;19.30;2.28;;;26.50;41.30;;;;;;4973805;28;20023;-93
2022/07/22 05:19:41;;;;;;;5.50;1.55;;;26.70;40.90;;;;;;4972674;28;20480;-92
2022/07/22 05:22:08;;;;;;;9.98;2.05;;;27.10;40.70;;;;;;4974609;28;20026;-93
2022/07/22 05:24:34;;;;;;;9.77;2.78;;;27.40;40.10;;;;;;4973693;28;20443;-91
2022/07/22 05:27:00;;;;;;;21.15;3.30;;;27.70;39.70;;;;;;4973268;28;20039;-93
2022/07/22 05:29:25;;;;;;;14.52;2.55;;;27.90;39.40;;;;;;4973314;28;20031;-93
2022/07/22 05:31:51;;;;;;;7.63;2.05;;;28.10;39.00;;;;;;4973361;28;20034;-93
2022/07/22 05:34:17;;;;;;;16.92;2.55;;;28.30;38.50;;;;;;4974211;28;20037;-93
2022/07/22 05:36:42;;;;;;;10.02;2.30;;;28.50;38.00;;;;;;4973610;28;20031;-93
2022/07/22 05:39:08;;;;;;;6.40;2.15;;;28.70;37.90;;;;;;4974452;28;20038;-92
2022/07/22 05:41:33;;;;;;;7.38;1.83;;;28.90;36.90;;;;;;4973069;28;20033;-93
2022/07/22 05:43:59;;;;;;;4.97;1.60;;;29.10;35.60;;;;;;4991653;28;20026;-93
2022/07/22 05:46:25;;;;;;;6.93;1.67;;;29.30;34.70;;;;;;4982728;28;20018;-94
2022/07/22 05:48:50;;;;;;;3.63;1.50;;;29.50;34.40;;;;;;4973502;28;20472;-92
2022/07/22 05:51:16;;;;;;;5.85;1.35;;;29.80;33.50;;;;;;4973916;28;20081;-91
2022/07/22 05:53:43;;;;;;;6.43;1.40;;;30.00;33.20;;;;;;4974334;28;20058;-93
2022/07/22 05:56:11;;;;;;;6.38;1.90;;;30.50;32.00;;;;;;4976275;28;20027;-93
2022/07/22 05:58:37;;;;;;;5.63;1.45;;;31.00;31.50;;;;;;4975986;28;20030;-92
2022/07/22 06:01:04;;;;;;;5.80;1.60;;;31.60;31.20;;;;;;4977211;28;20130;-93
2022/07/22 06:03:29;;;;;;;5.28;1.50;;;32.20;30.80;;;;;;4973326;28;20062;-92
2022/07/22 06:05:55;;;;;;;13.02;1.70;;;33.00;29.30;;;;;;4975586;28;20062;-92
2022/07/22 06:08:21;;;;;;;7.70;1.27;;;33.70;28.90;;;;;;4976666;28;20042;-92
2022/07/22 06:10:47;;;;;;;10.73;2.00;;;34.50;28.00;;;;;;4979526;28;20026;-92
2022/07/22 06:13:13;;;;;;;4.85;1.15;;;35.30;27.40;;;;;;4980410;28;20090;-92
2022/07/22 06:15:39;;;;;;;5.55;1.55;;;36.20;26.70;;;;;;4979315;28;20059;-93
2022/07/22 06:18:05;;;;;;;7.78;2.00;;;36.80;26.50;;;;;;4974657;28;20050;-93
2022/07/22 06:20:30;;;;;;;18.08;2.17;;;37.30;25.70;;;;;;4974708;28;20594;-92
2022/07/22 06:22:56;;;;;;;7.00;2.05;;;37.90;25.40;;;;;;4975087;28;20023;-93
2022/07/22 06:25:22;;;;;;;7.85;1.40;;;38.40;24.70;;;;;;4973676;28;20031;-93
2022/07/22 06:27:47;;;;;;;10.05;1.30;;;39.20;24.10;;;;;;4990860;28;20121;-92
2022/07/22 06:30:13;;;;;;;10.90;1.65;;;39.50;23.40;;;;;;4970661;28;20029;-94
2022/07/22 06:32:39;;;;;;;5.90;1.45;;;39.80;23.10;;;;;;4960871;28;20023;-93
2022/07/22 06:35:05;;;;;;;8.07;1.58;;;40.10;23.00;;;;;;4974493;28;20133;-93
2022/07/22 06:37:31;;;;;;;12.63;1.90;;;40.30;23.00;;;;;;4974153;28;20082;-94
2022/07/22 06:39:56;;;;;;;10.68;1.63;;;40.40;22.80;;;;;;4974341;28;20031;-94
2022/07/22 06:42:22;;;;;;;8.32;1.75;;;40.30;22.50;;;;;;4978187;28;20033;-94
2022/07/22 06:44:48;;;;;;;6.10;2.00;;;40.20;22.50;;;;;;4976805;28;20041;-94
2022/07/22 06:47:14;;;;;;;11.30;1.98;;;40.00;22.40;;;;;;4975470;28;20019;-94
2022/07/22 06:49:40;;;;;;;4.30;1.50;;;40.20;22.20;;;;;;4984091;28;20043;-95
2022/07/22 06:52:06;;;;;;;13.88;2.13;;;40.40;22.20;;;;;;4994595;28;20030;-93
2022/07/22 06:54:31;;;;;;;9.80;1.95;;;40.90;22.00;;;;;;4993541;28;20014;-95
2022/07/22 06:56:57;;;;;;;7.47;1.55;;;41.20;21.80;;;;;;4980263;28;20069;-90
2022/07/22 06:59:23;;;;;;;7.05;1.70;;;41.50;21.70;;;;;;4969178;28;20118;-90
2022/07/22 07:01:49;;;;;;;4.00;1.92;;;41.60;21.90;;;;;;4966588;28;20105;-96
2022/07/22 07:04:18;;;;;;;8.25;1.83;;;41.70;21.60;;;;;;4983372;28;20109;-96
2022/07/22 07:06:44;;;;;;;9.32;1.45;;;41.70;21.50;;;;;;4975834;28;20102;-96
2022/07/22 07:09:10;;;;;;;5.35;1.52;;;41.90;21.20;;;;;;4973072;28;20039;-95
2022/07/22 07:11:35;;;;;;;7.32;1.65;;;41.80;20.90;;;;;;4978567;28;20033;-96
2022/07/22 07:14:01;;;;;;;5.25;2.20;;;41.90;21.10;;;;;;4980593;28;20038;-94
2022/07/22 07:16:27;;;;;;;7.40;1.70;;;42.20;21.10;;;;;;4971314;28;20106;-94
2022/07/22 07:18:53;;;;;;;6.47;1.48;;;42.20;21.10;;;;;;4971753;28;20476;-94
2022/07/22 07:21:19;;;;;;;4.88;1.75;;;42.20;20.90;;;;;;4968118;28;20022;-94
2022/07/22 07:23:44;;;;;;;4.32;1.50;;;42.00;21.00;;;;;;4952684;29;20086;-94
2022/07/22 07:26:10;;;;;;;10.40;1.27;;;41.80;21.10;;;;;;4957361;28;20027;-94
2022/07/22 07:28:36;;;;;;;10.20;1.98;;;41.90;21.10;;;;;;4971643;28;20042;-94
2022/07/22 07:31:02;;;;;;;11.73;2.20;;;42.30;20.60;;;;;;4971651;28;20023;-92
2022/07/22 07:33:28;;;;;;;8.25;1.95;;;42.20;20.90;;;;;;4972729;28;20363;-94
2022/07/22 07:35:54;;;;;;;5.88;1.88;;;42.20;20.90;;;;;;4971899;28;20023;-95
2022/07/22 07:38:20;;;;;;;5.30;1.60;;;41.90;20.80;;;;;;4971186;28;20559;-93
2022/07/22 07:40:45;;;;;;;12.18;2.17;;;41.90;20.50;;;;;;4971581;28;20114;-93
2022/07/22 07:43:11;;;;;;;6.80;1.75;;;41.50;21.30;;;;;;4971223;28;20058;-94
2022/07/22 07:45:37;;;;;;;15.32;2.05;;;41.70;21.40;;;;;;4976854;28;20029;-94
2022/07/22 07:48:03;;;;;;;5.78;1.80;;;41.90;21.40;;;;;;4988840;28;20173;-95
2022/07/22 07:50:29;;;;;;;8.77;2.45;;;41.70;21.10;;;;;;4992296;28;20360;-94
2022/07/22 07:52:56;;;;;;;9.20;2.92;;;41.60;21.30;;;;;;4995936;28;20041;-96
2022/07/22 07:55:21;;;;;;;7.78;2.10;;;41.90;21.00;;;;;;5003348;28;20081;-96
2022/07/22 07:57:48;;;;;;;7.70;2.35;;;42.10;21.00;;;;;;5001098;28;20054;-95
2022/07/22 08:00:17;;;;;;;7.32;2.15;;;42.00;21.00;;;;;;4999637;28;20411;-96
2022/07/22 08:02:43;;;;;;;3.65;1.75;;;42.20;21.10;;;;;;4996592;28;20034;-94
2022/07/22 08:05:09;;;;;;;5.35;1.30;;;41.90;21.10;;;;;;4980690;28;20522;-95
2022/07/22 08:07:35;;;;;;;12.05;1.90;;;41.60;21.00;;;;;;4976038;28;20035;-95
2022/07/22 08:10:04;;;;;;;6.03;2.00;;;41.30;21.20;;;;;;4975256;28;20027;-95
2022/07/22 08:12:30;;;;;;;10.90;2.17;;;41.60;21.40;;;;;;4975347;28;20058;-95
2022/07/22 08:14:56;;;;;;;11.55;1.83;;;41.80;21.30;;;;;;4973838;28;20427;-94
2022/07/22 08:17:21;;;;;;;6.90;2.28;;;41.90;21.30;;;;;;4975601;28;20050;-94
2022/07/22 08:19:47;;;;;;;5.95;1.40;;;41.50;21.50;;;;;;4974619;28;20034;-91
2022/07/22 08:22:13;;;;;;;8.15;1.67;;;41.30;21.60;;;;;;4975376;28;20070;-92
2022/07/22 08:24:38;;;;;;;7.43;1.50;;;41.20;21.70;;;;;;4975596;28;20022;-92
2022/07/22 08:27:04;;;;;;;11.93;2.00;;;41.10;21.80;;;;;;4975467;28;20561;-93
2022/07/22 08:29:30;;;;;;;13.40;2.28;;;41.50;21.90;;;;;;4975959;28;20051;-90
2022/07/22 08:31:55;;;;;;;8.27;1.65;;;41.80;21.60;;;;;;4973675;28;20034;-93
2022/07/22 08:34:21;;;;;;;15.25;1.83;;;41.80;21.00;;;;;;4974337;28;20476;-92
2022/07/22 08:36:47;;;;;;;5.53;2.05;;;41.50;21.40;;;;;;4974445;28;20105;-96
2022/07/22 08:39:13;;;;;;;5.93;1.75;;;41.20;21.50;;;;;;4983149;28;20090;-96
2022/07/22 08:41:39;;;;;;;7.85;1.80;;;41.00;21.90;;;;;;4984434;28;20026;-96
2022/07/22 08:44:08;;;;;;;5.07;1.98;;;41.20;22.20;;;;;;4976677;28;20427;-94
2022/07/22 08:46:34;;;;;;;6.10;1.85;;;41.70;22.10;;;;;;4976741;28;20019;-94
2022/07/22 08:49:01;;;;;;;6.93;1.98;;;42.00;21.60;;;;;;4974023;28;20472;-95
2022/07/22 08:51:27;;;;;;;5.57;1.58;;;42.20;21.40;;;;;;4974230;28;20035;-95
2022/07/22 08:53:54;;;;;;;3.20;1.58;;;42.30;21.20;;;;;;4978182;28;20496;-92
2022/07/22 08:56:19;;;;;;;3.22;1.17;;;42.50;21.30;;;;;;4995358;28;20026;-93
2022/07/22 08:58:45;;;;;;;5.57;1.33;;;42.50;21.30;;;;;;4993569;28;20065;-93
2022/07/22 09:01:16;;;;;;;5.80;1.40;;;42.70;21.40;;;;;;4987604;28;20384;-94
2022/07/22 09:03:49;;;;;;;6.03;1.70;;;43.00;21.40;;;;;;4990605;28;20531;-93
2022/07/22 09:06:20;;;;;;;2.57;1.27;;;43.10;21.30;;;;;;4993776;28;20169;-92
2022/07/22 09:09:00;;;;;;;5.28;1.90;;;43.10;21.20;;;;;;4993861;28;20470;-95
2022/07/22 09:11:28;;;;;;;6.53;1.52;;;43.00;21.20;;;;;;4979162;28;20027;-95
2022/07/22 09:13:55;;;;;;;4.32;1.90;;;43.10;21.40;;;;;;4974516;28;20551;-94
2022/07/22 09:16:40;;;;;;;9.80;1.80;;;43.30;21.20;;;;;;4973518;28;20029;-95
2022/07/22 09:19:06;;;;;;;6.43;1.30;;;43.50;21.20;;;;;;4974093;28;20033;-95
2022/07/22 09:21:34;;;;;;;7.22;1.83;;;43.50;21.10;;;;;;4973273;28;20030;-94
2022/07/22 09:24:00;;;;;;;3.65;1.55;;;43.50;21.20;;;;;;4974664;28;20233;-95
2022/07/22 09:26:33;;;;;;;7.65;1.83;;;43.60;21.00;;;;;;4974798;28;20122;-95
2022/07/22 09:29:00;;;;;;;15.38;1.65;;;43.30;21.10;;;;;;4975198;28;20030;-95
2022/07/22 09:31:31;;;;;;;5.88;1.60;;;42.90;21.00;;;;;;4982832;28;20031;-94
2022/07/22 09:33:58;;;;;;;4.72;1.70;;;42.60;21.10;;;;;;4990329;28;20026;-95
2022/07/22 09:36:24;;;;;;;4.80;1.33;;;41.90;21.60;;;;;;5000824;28;20027;-94
2022/07/22 09:38:49;;;;;;;6.15;2.00;;;41.30;21.70;;;;;;4984834;28;20522;-91
2022/07/22 09:41:15;;;;;;;4.97;1.10;;;40.80;21.80;;;;;;4964999;28;20468;-90
2022/07/22 09:43:41;;;;;;;5.70;1.38;;;40.50;22.00;;;;;;4975079;28;20023;-92
2022/07/22 09:46:09;;;;;;;5.15;1.67;;;40.30;22.60;;;;;;4973841;28;20083;-90
2022/07/22 09:48:36;;;;;;;9.68;1.65;;;40.20;22.50;;;;;;4973189;28;20077;-90
2022/07/22 09:51:02;;;;;;;6.10;1.67;;;40.10;22.60;;;;;;4959593;28;20119;-89
2022/07/22 09:53:29;;;;;;;3.08;1.20;;;40.20;22.80;;;;;;4969966;28;20026;-89
2022/07/22 09:56:05;;;;;;;4.97;1.50;;;40.00;22.60;;;;;;4971601;28;20137;-92
2022/07/22 09:58:31;;;;;;;5.80;1.60;;;40.00;22.70;;;;;;4970330;28;20099;-92
2022/07/22 10:01:02;;;;;;;9.43;1.63;;;40.90;22.70;;;;;;4960744;28;20082;-93
2022/07/22 10:03:40;;;;;;;5.28;1.00;;;41.80;22.00;;;;;;4972526;28;20037;-92
2022/07/22 10:06:06;;;;;;;7.43;1.63;;;42.30;21.70;;;;;;4972900;28;20027;-93
2022/07/22 10:08:33;;;;;;;3.13;1.40;;;42.30;21.70;;;;;;4973028;28;20027;-93
2022/07/22 10:11:02;;;;;;;4.18;1.40;;;42.30;21.60;;;;;;4972744;28;20033;-93
2022/07/22 10:13:28;;;;;;;3.55;1.70;;;42.10;21.70;;;;;;4973033;28;20047;-93
2022/07/22 10:15:56;;;;;;;6.88;1.17;;;41.70;21.30;;;;;;4985295;28;20134;-93
2022/07/22 10:18:23;;;;;;;5.75;2.25;;;41.60;21.50;;;;;;4974743;28;20019;-92
2022/07/22 10:21:07;;;;;;;14.18;2.15;;;41.40;21.90;;;;;;4972239;28;20019;-92
2022/07/22 10:23:33;;;;;;;3.38;1.48;;;41.30;22.10;;;;;;4974556;28;20034;-94
2022/07/22 10:26:01;;;;;;;3.67;1.40;;;41.30;22.00;;;;;;4974047;28;20035;-93
2022/07/22 10:28:36;;;;;;;7.95;1.40;;;41.20;22.00;;;;;;4976412;28;20026;-93
2022/07/22 10:31:23;;;;;;;10.25;1.63;;;41.20;22.20;;;;;;4970432;28;20455;-91
2022/07/22 10:33:54;;;;;;;4.13;1.75;;;40.80;22.00;;;;;;4964687;28;20043;-93
2022/07/22 10:36:42;;;;;;;5.45;1.50;;;40.70;22.00;;;;;;4967760;28;20061;-93
2022/07/22 10:39:13;;;;;;;7.07;1.35;;;40.40;22.40;;;;;;4976704;28;20128;-93
2022/07/22 10:41:45;;;;;;;3.38;1.33;;;40.30;22.60;;;;;;4971493;28;20074;-93
2022/07/22 10:44:11;;;;;;;8.02;1.30;;;40.00;22.60;;;;;;4971243;28;20045;-91
2022/07/22 10:46:51;;;;;;;10.38;1.52;;;39.90;22.60;;;;;;4976201;28;20101;-92
2022/07/22 10:49:19;;;;;;;6.78;1.55;;;39.80;23.20;;;;;;4980670;28;20095;-92
2022/07/22 10:52:07;;;;;;;2.50;1.02;;;39.80;23.20;;;;;;4979048;28;20027;-93
2022/07/22 10:54:33;;;;;;;5.50;1.92;;;39.80;23.20;;;;;;4971014;28;20043;-94
2022/07/22 10:57:02;;;;;;;5.70;1.45;;;39.60;23.30;;;;;;4967465;28;20031;-92
2022/07/22 10:59:28;;;;;;;12.23;1.20;;;39.50;23.40;;;;;;4957654;28;20047;-93
2022/07/22 11:01:54;;;;;;;9.10;2.00;;;39.60;23.40;;;;;;4967791;28;20031;-93
2022/07/22 11:04:23;;;;;;;6.55;1.45;;;39.80;23.40;;;;;;4971676;28;20035;-94
2022/07/22 11:06:51;;;;;;;4.43;1.17;;;39.90;23.30;;;;;;4951514;28;20039;-91
2022/07/22 11:09:19;;;;;;;5.68;1.77;;;40.00;23.10;;;;;;4952029;28;20048;-90
2022/07/22 11:11:47;;;;;;;6.55;1.67;;;39.90;23.00;;;;;;4946000;28;20063;-92
2022/07/22 11:14:15;;;;;;;15.48;1.90;;;39.70;23.10;;;;;;4956526;28;20385;-93
2022/07/22 11:16:41;;;;;;;6.63;1.25;;;39.70;23.30;;;;;;4950597;28;20134;-92
2022/07/22 11:19:07;;;;;;;7.45;1.60;;;39.70;23.40;;;;;;4952154;28;20039;-92
2022/07/22 11:21:34;;;;;;;11.70;1.45;;;39.70;23.20;;;;;;4956871;28;20039;-93
2022/07/22 11:24:02;;;;;;;9.10;1.83;;;39.60;23.30;;;;;;4958917;28;20059;-93
2022/07/22 11:26:44;;;;;;;3.80;1.55;;;39.60;23.00;;;;;;4950825;28;20032;-93
2022/07/22 11:29:14;;;;;;;3.88;1.92;;;39.20;23.40;;;;;;4954572;28;20046;-94
2022/07/22 11:31:40;;;;;;;9.98;1.40;;;39.00;23.30;;;;;;4952429;28;20116;-94
2022/07/22 11:34:16;;;;;;;10.20;1.45;;;38.90;23.60;;;;;;4955910;28;20083;-93
2022/07/22 11:36:45;;;;;;;5.57;1.70;;;39.00;23.70;;;;;;4953568;28;20038;-95
2022/07/22 11:39:12;;;;;;;5.05;1.40;;;39.10;24.40;;;;;;4956169;28;20078;-93
2022/07/22 11:41:39;;;;;;;3.08;1.55;;;39.10;23.40;;;;;;4952675;28;20039;-94
2022/07/22 11:44:05;;;;;;;4.78;1.55;;;39.10;23.20;;;;;;4968781;28;20035;-94
2022/07/22 11:46:37;;;;;;;5.75;1.60;;;39.20;23.30;;;;;;4979989;28;20446;-92
2022/07/22 11:49:03;;;;;;;9.20;1.52;;;39.10;23.30;;;;;;4976482;28;20049;-92
2022/07/22 11:51:31;;;;;;;7.70;1.83;;;39.10;23.30;;;;;;4977515;28;20043;-94
2022/07/22 11:53:58;;;;;;;8.90;1.50;;;39.00;23.50;;;;;;4970207;28;20111;-94
2022/07/22 11:56:24;;;;;;;4.55;1.55;;;39.10;23.70;;;;;;4978272;28;20038;-93
2022/07/22 11:58:54;;;;;;;6.07;1.10;;;39.20;23.40;;;;;;4969528;28;20053;-94
2022/07/22 12:01:23;;;;;;;6.25;1.20;;;39.10;23.60;;;;;;4979197;28;20059;-94
2022/07/22 12:03:52;;;;;;;15.35;2.00;;;39.10;23.60;;;;;;4960321;28;20066;-93
2022/07/22 12:06:19;;;;;;;9.07;1.58;;;39.00;23.60;;;;;;4966201;28;20492;-94
2022/07/22 12:08:49;;;;;;;11.32;1.80;;;39.00;23.70;;;;;;4972509;28;20098;-92
2022/07/22 12:11:16;;;;;;;7.80;1.42;;;38.90;23.50;;;;;;4968609;28;20058;-93
2022/07/22 12:13:46;;;;;;;7.28;1.77;;;38.80;23.60;;;;;;4972457;28;20038;-93
2022/07/22 12:16:23;;;;;;;7.88;2.03;;;38.80;23.70;;;;;;4976133;28;20519;-91
2022/07/22 12:19:12;;;;;;;9.50;1.60;;;38.60;24.10;;;;;;4968526;28;20036;-93
2022/07/22 12:21:59;;;;;;;5.68;1.80;;;38.60;23.90;;;;;;4962050;28;20640;-93
2022/07/22 12:24:28;;;;;;;8.07;2.42;;;38.60;23.80;;;;;;4970691;28;20038;-93
2022/07/22 12:26:55;;;;;;;6.45;1.85;;;38.50;24.00;;;;;;4964664;28;20073;-93
2022/07/22 12:29:23;;;;;;;6.95;1.52;;;38.50;23.90;;;;;;4964667;28;20117;-94
2022/07/22 12:31:50;;;;;;;3.10;1.30;;;38.60;24.00;;;;;;4971160;28;20039;-93
2022/07/22 12:34:17;;;;;;;3.30;1.52;;;38.60;23.80;;;;;;4955185;28;20118;-92
2022/07/22 12:36:45;;;;;;;12.20;1.92;;;38.60;24.00;;;;;;4972786;28;20206;-93
2022/07/22 12:39:18;;;;;;;4.95;1.40;;;38.60;24.00;;;;;;4952080;28;20090;-93
2022/07/22 12:41:50;;;;;;;8.18;1.10;;;38.60;23.50;;;;;;4959913;28;20038;-93
2022/07/22 12:44:26;;;;;;;4.35;1.55;;;38.40;23.70;;;;;;4958375;28;20071;-91